Terminal Aerodrome Forecast
Issued by NWS Cleveland, OH

Home | Current Version | Previous Version | Graphics & Text | Print | Product List | Glossary Off
Versions: 1 2 3 4 5 6 7 8 9 10 11 12 13 14 15 16 17

000
FTUS41 KCLE 202331
TAFTOL
TAF
KTOL 202331Z 2100/2124 20012G20KT P6SM FEW250
     FM210400 21012KT P6SM SCT250 WS020/23050KT
     FM211400 22015G25KT P6SM BKN150
     FM211700 22020G30KT P6SM BKN100=

USA.gov is the U.S. government's official web portal to all federal, state and local government web resources and services.